createdAt,value
2019-05-22T00:00:47.819Z,19.22
2019-05-22T00:03:16.156Z,19.11
2019-05-22T00:05:42.962Z,19.10
2019-05-22T00:08:09.741Z,19.16
2019-05-22T00:10:38.598Z,19.21
2019-05-22T00:13:05.763Z,18.92
2019-05-22T00:15:32.664Z,18.79
2019-05-22T00:18:01.624Z,18.83
2019-05-22T00:20:28.221Z,18.68
2019-05-22T00:22:54.816Z,18.61
2019-05-22T00:25:23.278Z,18.66
2019-05-22T00:27:49.871Z,18.37
2019-05-22T00:30:16.735Z,18.41
2019-05-22T00:32:45.331Z,18.63
2019-05-22T00:35:12.030Z,18.66
2019-05-22T00:37:38.828Z,18.61
2019-05-22T00:40:07.438Z,18.60
2019-05-22T00:42:34.068Z,18.61
2019-05-22T00:45:00.755Z,18.70
2019-05-22T00:47:29.495Z,18.75
2019-05-22T00:49:56.306Z,18.75
2019-05-22T00:52:23.092Z,18.81
2019-05-22T00:54:52.037Z,18.78
2019-05-22T00:57:18.634Z,18.71
2019-05-22T00:59:45.511Z,18.71
2019-05-22T01:02:14.168Z,18.70
2019-05-22T01:04:40.750Z,18.49
2019-05-22T01:07:07.566Z,18.18
2019-05-22T01:09:36.508Z,17.96
2019-05-22T01:12:03.970Z,17.76
2019-05-22T01:14:42.569Z,17.55
2019-05-22T01:17:03.378Z,17.69
2019-05-22T01:19:30.309Z,17.88
2019-05-22T01:21:57.130Z,17.86
2019-05-22T01:24:27.228Z,17.91
2019-05-22T01:26:53.816Z,18.16
2019-05-22T01:29:22.111Z,18.16
2019-05-22T01:31:51.957Z,18.15
2019-05-22T01:34:18.778Z,18.19
2019-05-22T01:36:45.623Z,18.18
2019-05-22T01:39:14.205Z,17.93
2019-05-22T01:41:41.080Z,17.58
2019-05-22T01:44:07.795Z,17.45
2019-05-22T01:46:37.270Z,17.41
2019-05-22T01:49:03.869Z,17.54
2019-05-22T01:51:30.667Z,17.90
2019-05-22T01:53:59.233Z,17.96
2019-05-22T01:56:27.321Z,17.92
2019-05-22T01:58:53.903Z,18.07
2019-05-22T02:01:22.748Z,18.12
2019-05-22T02:03:49.373Z,18.06
2019-05-22T02:06:15.955Z,17.96
2019-05-22T02:08:44.849Z,17.99
2019-05-22T02:11:11.447Z,17.77
2019-05-22T02:13:38.056Z,17.71
2019-05-22T02:16:06.648Z,17.60
2019-05-22T02:18:33.528Z,17.63
2019-05-22T02:21:00.384Z,17.77
2019-05-22T02:23:29.908Z,17.85
2019-05-22T02:25:56.779Z,17.79
2019-05-22T02:28:23.377Z,17.60
2019-05-22T02:30:52.122Z,17.63
2019-05-22T02:33:18.993Z,17.81
2019-05-22T02:35:45.572Z,17.73
2019-05-22T02:38:14.394Z,17.63
2019-05-22T02:40:40.975Z,17.51
2019-05-22T02:43:07.844Z,17.69
2019-05-22T02:45:36.733Z,17.85
2019-05-22T02:48:03.335Z,17.71
2019-05-22T02:56:05.333Z,17.81
2019-05-22T02:58:33.997Z,17.84
2019-05-22T03:01:00.700Z,18.06
2019-05-22T03:03:27.425Z,17.96
2019-05-22T03:05:56.787Z,18.02
2019-05-22T03:08:23.362Z,17.79
2019-05-22T03:10:49.946Z,17.72
2019-05-22T03:13:18.732Z,17.52
2019-05-22T03:15:45.590Z,17.54
2019-05-22T03:18:13.393Z,17.60
2019-05-22T03:20:42.204Z,17.49
2019-05-22T03:23:08.790Z,17.41
2019-05-22T03:25:35.380Z,17.46
2019-05-22T03:28:03.951Z,17.29
2019-05-22T03:30:30.575Z,17.42
2019-05-22T03:32:57.216Z,17.59
2019-05-22T03:35:25.589Z,17.58
2019-05-22T03:37:53.483Z,17.40
2019-05-22T03:40:20.107Z,17.32
2019-05-22T03:42:49.080Z,17.43
2019-05-22T03:45:15.809Z,17.43
2019-05-22T03:47:42.290Z,17.56
2019-05-22T03:50:11.782Z,17.51
2019-05-22T03:52:38.359Z,17.51
2019-05-22T03:55:05.214Z,17.33
2019-05-22T03:57:34.415Z,17.18
2019-05-22T04:00:01.028Z,16.94
2019-05-22T04:02:27.629Z,17.13
2019-05-22T04:04:56.508Z,17.27
2019-05-22T04:07:22.986Z,17.36
2019-05-22T04:09:49.615Z,17.35
2019-05-22T04:12:18.269Z,17.43
2019-05-22T04:14:44.769Z,17.45
2019-05-22T04:17:12.690Z,17.27
2019-05-22T04:19:49.403Z,17.04
2019-05-22T04:22:09.613Z,17.00
2019-05-22T04:24:36.393Z,17.07
2019-05-22T04:27:08.526Z,17.24
2019-05-22T04:29:35.011Z,17.27
2019-05-22T04:32:03.117Z,17.37
2019-05-22T04:34:32.583Z,17.42
2019-05-22T04:36:59.114Z,17.64
2019-05-22T04:39:25.721Z,17.53
2019-05-22T04:41:54.301Z,17.62
2019-05-22T04:44:20.884Z,17.79
2019-05-22T04:46:47.777Z,17.97
2019-05-22T04:51:48.316Z,18.23
2019-05-22T04:54:14.921Z,18.31
2019-05-22T04:56:41.673Z,18.37
2019-05-22T04:59:10.418Z,18.32
2019-05-22T05:01:37.367Z,18.19
2019-05-22T05:04:03.968Z,18.16
2019-05-22T05:06:33.765Z,18.16
2019-05-22T05:09:00.361Z,18.25
2019-05-22T05:11:26.946Z,18.44
2019-05-22T05:13:55.549Z,18.44
2019-05-22T05:16:25.274Z,18.30
2019-05-22T05:18:52.146Z,18.20
2019-05-22T05:21:20.738Z,18.10
2019-05-22T05:23:47.607Z,18.09
2019-05-22T05:26:14.215Z,18.25
2019-05-22T05:28:43.247Z,18.43
2019-05-22T05:31:10.036Z,18.86
2019-05-22T05:33:37.522Z,19.15
2019-05-22T05:36:06.042Z,19.39
2019-05-22T05:38:32.638Z,19.49
2019-05-22T05:40:59.442Z,19.49
2019-05-22T05:43:28.343Z,19.47
2019-05-22T05:45:55.099Z,19.60
2019-05-22T05:48:21.781Z,19.63
2019-05-22T05:50:49.992Z,19.66
2019-05-22T05:53:16.567Z,19.67
2019-05-22T05:55:43.151Z,19.75
2019-05-22T05:58:11.986Z,20.02
2019-05-22T06:00:38.584Z,20.01
2019-05-22T06:03:05.404Z,20.08
2019-05-22T06:05:34.108Z,20.13
2019-05-22T06:08:00.697Z,20.18
2019-05-22T06:10:27.290Z,20.13
2019-05-22T06:12:56.032Z,20.24
2019-05-22T06:18:08.974Z,20.11
2019-05-22T06:20:35.898Z,20.23
2019-05-22T06:23:02.863Z,20.34
2019-05-22T06:25:31.653Z,20.39
2019-05-22T06:27:58.654Z,20.39
2019-05-22T06:30:25.561Z,20.47
2019-05-22T06:32:54.016Z,20.71
2019-05-22T06:35:20.644Z,20.70
2019-05-22T06:37:47.541Z,20.76
2019-05-22T06:40:16.510Z,20.74
2019-05-22T06:42:43.328Z,21.32
2019-05-22T06:45:09.901Z,21.41
2019-05-22T06:47:39.533Z,21.52
2019-05-22T06:50:06.169Z,21.32
2019-05-22T06:52:32.768Z,21.64
2019-05-22T06:55:01.676Z,21.88
2019-05-22T06:57:28.530Z,22.07
2019-05-22T07:00:11.987Z,23.50
2019-05-22T07:02:27.146Z,23.25
2019-05-22T07:04:56.201Z,23.32
2019-05-22T07:07:23.779Z,23.62
2019-05-22T07:09:53.687Z,23.99
2019-05-22T07:12:22.589Z,24.18
2019-05-22T07:14:51.004Z,24.38
2019-05-22T07:17:20.813Z,24.67
2019-05-22T07:19:48.337Z,25.08
2019-05-22T07:22:14.853Z,25.19
2019-05-22T07:24:43.290Z,25.16
2019-05-22T07:27:10.822Z,25.04
2019-05-22T07:29:37.330Z,24.80
2019-05-22T07:32:06.441Z,24.59
2019-05-22T07:34:33.011Z,24.53
2019-05-22T07:37:00.539Z,24.62
2019-05-22T07:39:29.418Z,24.77
2019-05-22T07:41:55.959Z,24.62
2019-05-22T07:44:22.440Z,24.48
2019-05-22T07:46:52.060Z,24.43
2019-05-22T07:49:18.560Z,24.49
2019-05-22T07:51:56.203Z,24.63
2019-05-22T07:54:15.503Z,24.76
2019-05-22T07:56:43.009Z,24.97
2019-05-22T07:59:10.533Z,24.96
2019-05-22T08:01:40.329Z,25.11
2019-05-22T08:04:07.882Z,25.11
2019-05-22T08:06:35.288Z,25.28
2019-05-22T08:09:04.639Z,25.38
2019-05-22T08:11:31.481Z,25.33
2019-05-22T08:13:58.520Z,25.46
2019-05-22T08:16:28.143Z,25.67
2019-05-22T08:18:54.676Z,25.81
2019-05-22T08:21:23.353Z,25.72
2019-05-22T08:23:51.677Z,25.72
2019-05-22T08:26:19.308Z,25.78
2019-05-22T08:28:46.822Z,25.77
2019-05-22T08:31:15.823Z,25.83
2019-05-22T08:33:42.367Z,25.80
2019-05-22T08:36:08.898Z,25.85
2019-05-22T08:38:38.692Z,26.02
2019-05-22T08:41:05.192Z,25.99
2019-05-22T08:43:31.781Z,26.15
2019-05-22T08:46:00.251Z,25.76
2019-05-22T08:48:26.733Z,25.52
2019-05-22T08:50:53.585Z,25.61
2019-05-22T08:53:22.368Z,25.55
2019-05-22T08:55:49.715Z,25.68
2019-05-22T08:58:17.237Z,25.67
2019-05-22T09:00:46.725Z,25.35
2019-05-22T09:03:15.778Z,25.35
2019-05-22T09:05:46.646Z,25.43
2019-05-22T09:08:18.525Z,25.59
2019-05-22T09:10:46.826Z,25.78
2019-05-22T09:13:15.825Z,25.73
2019-05-22T09:15:46.639Z,25.88
2019-05-22T09:18:14.166Z,25.96
2019-05-22T09:20:49.126Z,25.88
2019-05-22T09:23:14.942Z,25.93
2019-05-22T09:25:45.941Z,25.97
2019-05-22T09:28:14.730Z,25.89
2019-05-22T09:30:45.429Z,26.00
2019-05-22T09:33:15.058Z,26.18
2019-05-22T09:35:42.768Z,26.26
2019-05-22T09:38:16.906Z,26.04
2019-05-22T09:40:48.282Z,26.14
2019-05-22T09:43:15.883Z,26.12
2019-05-22T09:45:44.607Z,26.35
2019-05-22T09:48:11.174Z,26.40
2019-05-22T09:50:37.700Z,26.34
2019-05-22T09:53:06.387Z,26.14
2019-05-22T09:55:32.902Z,25.73
2019-05-22T09:57:59.403Z,25.83
2019-05-22T10:00:28.334Z,26.00
2019-05-22T10:02:54.836Z,26.24
2019-05-22T10:05:21.360Z,26.02
2019-05-22T10:08:00.538Z,26.00
2019-05-22T10:10:19.364Z,26.38
2019-05-22T10:12:46.895Z,26.66
2019-05-22T10:15:18.608Z,26.78
2019-05-22T10:17:46.424Z,26.60
2019-05-22T10:20:13.980Z,26.55
2019-05-22T10:22:42.778Z,26.96
2019-05-22T10:25:15.422Z,27.11
2019-05-22T10:27:37.510Z,27.22
2019-05-22T10:30:06.146Z,27.43
2019-05-22T10:32:32.747Z,27.36
2019-05-22T10:35:00.265Z,27.48
2019-05-22T10:37:29.167Z,27.62
2019-05-22T10:39:55.684Z,27.54
2019-05-22T10:42:22.217Z,27.68
2019-05-22T10:44:50.346Z,27.81
2019-05-22T10:47:18.850Z,27.69
2019-05-22T10:49:45.106Z,27.58
2019-05-22T10:52:14.702Z,27.45
2019-05-22T10:54:41.296Z,27.36
2019-05-22T10:57:08.074Z,27.52
2019-05-22T10:59:39.978Z,27.81
2019-05-22T11:02:07.806Z,28.16
2019-05-22T11:04:37.667Z,28.18
2019-05-22T11:07:07.851Z,27.71
2019-05-22T11:09:36.806Z,27.65
2019-05-22T11:12:03.581Z,27.76
2019-05-22T11:14:37.120Z,27.73
2019-05-22T11:17:03.138Z,27.88
2019-05-22T11:19:32.398Z,28.01
2019-05-22T11:22:04.656Z,27.98
2019-05-22T11:24:34.718Z,28.19
2019-05-22T11:27:20.389Z,28.10
2019-05-22T11:29:52.920Z,27.96
2019-05-22T11:32:20.459Z,27.17
2019-05-22T11:34:48.012Z,26.73
2019-05-22T11:37:16.456Z,27.31
2019-05-22T11:39:45.027Z,27.66
2019-05-22T11:42:11.926Z,27.83
2019-05-22T11:44:40.461Z,27.93
2019-05-22T11:47:07.976Z,28.18
2019-05-22T11:49:34.515Z,28.50
2019-05-22T11:52:07.047Z,28.58
2019-05-22T11:54:34.593Z,28.39
2019-05-22T11:57:02.114Z,28.50
2019-05-22T11:59:30.908Z,28.63
2019-05-22T12:01:57.434Z,28.79
2019-05-22T12:04:24.959Z,29.17
2019-05-22T12:12:01.484Z,29.82
2019-05-22T12:14:28.625Z,29.82
2019-05-22T12:16:55.534Z,29.53
2019-05-22T12:21:56.445Z,29.20
2019-05-22T12:24:30.189Z,29.14
2019-05-22T12:26:54.893Z,29.00
2019-05-22T12:29:28.721Z,28.96
2019-05-22T12:31:55.904Z,29.06
2019-05-22T12:34:23.082Z,29.02
2019-05-22T12:39:31.618Z,28.85
2019-05-22T12:41:58.443Z,28.92
2019-05-22T12:44:26.188Z,28.91
2019-05-22T12:46:56.561Z,28.78
2019-05-22T12:51:52.173Z,28.68
2019-05-22T12:54:20.919Z,28.55
2019-05-22T12:56:49.951Z,28.73
2019-05-22T12:59:21.784Z,29.01
2019-05-22T13:01:54.003Z,29.13
2019-05-22T13:04:28.537Z,28.89
2019-05-22T13:06:57.758Z,28.63
2019-05-22T13:09:27.776Z,28.44
2019-05-22T13:17:28.120Z,28.32
2019-05-22T13:22:30.326Z,28.11
2019-05-22T13:24:58.823Z,28.16
2019-05-22T13:27:27.117Z,28.15
2019-05-22T13:37:42.880Z,28.08
2019-05-22T13:40:26.756Z,28.14
2019-05-22T13:42:43.415Z,27.82
2019-05-22T13:45:25.994Z,27.86
2019-05-22T13:47:40.502Z,27.86
2019-05-22T13:50:10.208Z,27.81
2019-05-22T13:52:36.732Z,27.72
2019-05-22T13:55:03.228Z,27.59
2019-05-22T13:57:33.340Z,27.59
2019-05-22T13:59:59.911Z,27.43
2019-05-22T14:02:27.236Z,27.49
2019-05-22T14:07:31.025Z,27.63
2019-05-22T14:09:57.541Z,27.81
2019-05-22T14:12:24.167Z,27.86
2019-05-22T14:14:52.381Z,27.92
2019-05-22T14:17:18.870Z,28.04
2019-05-22T14:19:45.374Z,28.11
2019-05-22T14:22:15.887Z,28.18
2019-05-22T14:24:42.518Z,27.81
2019-05-22T14:27:09.381Z,27.75
2019-05-22T14:29:38.519Z,27.49
2019-05-22T14:32:10.959Z,27.40
2019-05-22T14:34:38.460Z,27.52
2019-05-22T14:37:13.046Z,27.62
2019-05-22T14:39:39.632Z,27.45
2019-05-22T14:42:16.617Z,27.35
2019-05-22T14:44:49.938Z,27.32
2019-05-22T14:50:07.730Z,26.90
2019-05-22T14:52:34.268Z,26.91
2019-05-22T14:55:00.767Z,26.96
2019-05-22T14:57:33.932Z,27.11
2019-05-22T15:00:03.010Z,27.46
2019-05-22T15:02:29.830Z,27.65
2019-05-22T15:05:02.650Z,27.91
2019-05-22T15:07:29.548Z,28.13
2019-05-22T15:09:56.040Z,27.97
2019-05-22T15:12:25.429Z,28.11
2019-05-22T15:14:51.942Z,28.13
2019-05-22T15:17:31.827Z,28.11
2019-05-22T15:24:53.492Z,27.70
2019-05-22T15:27:20.037Z,27.80
2019-05-22T15:29:46.549Z,27.61
2019-05-22T15:32:14.651Z,27.52
2019-05-22T15:34:41.154Z,27.49
2019-05-22T15:37:07.659Z,27.16
2019-05-22T15:39:36.390Z,27.03
2019-05-22T15:42:02.937Z,26.84
2019-05-22T15:44:29.453Z,26.71
2019-05-22T15:46:57.613Z,26.58
2019-05-22T15:49:24.112Z,26.67
2019-05-22T15:51:50.619Z,26.70
2019-05-22T15:56:52.122Z,26.96
2019-05-22T15:59:18.620Z,27.38
2019-05-22T16:01:45.145Z,27.36
2019-05-22T16:04:13.591Z,27.14
2019-05-22T16:06:40.122Z,27.04
2019-05-22T16:09:06.619Z,27.18
2019-05-22T16:11:35.535Z,26.83
2019-05-22T16:14:03.019Z,26.43
2019-05-22T16:16:29.556Z,26.22
2019-05-22T16:18:57.720Z,26.13
2019-05-22T16:21:24.249Z,26.14
2019-05-22T16:23:50.775Z,26.01
2019-05-22T16:26:19.176Z,26.09
2019-05-22T16:28:45.691Z,26.01
2019-05-22T16:31:12.196Z,25.96
2019-05-22T16:33:41.162Z,26.04
2019-05-22T16:36:07.666Z,25.95
2019-05-22T16:38:34.185Z,25.80
2019-05-22T16:41:02.421Z,25.81
2019-05-22T16:43:47.203Z,25.90
2019-05-22T16:45:57.111Z,26.02
2019-05-22T16:48:28.783Z,25.92
2019-05-22T16:50:54.039Z,25.68
2019-05-22T16:53:20.573Z,25.26
2019-05-22T16:55:52.682Z,25.30
2019-05-22T16:58:19.192Z,25.27
2019-05-22T17:00:45.687Z,25.37
2019-05-22T17:05:46.894Z,25.38
2019-05-22T17:08:13.441Z,25.32
2019-05-22T17:10:40.306Z,25.35
2019-05-22T17:13:12.152Z,25.31
2019-05-22T17:15:37.238Z,25.14
2019-05-22T17:18:06.385Z,25.16
2019-05-22T17:20:34.836Z,25.25
2019-05-22T17:23:01.348Z,25.16
2019-05-22T17:25:27.971Z,24.85
2019-05-22T17:27:57.190Z,24.88
2019-05-22T17:30:23.784Z,24.78
2019-05-22T17:32:50.682Z,24.88
2019-05-22T17:35:18.959Z,24.75
2019-05-22T17:37:45.473Z,24.47
2019-05-22T17:40:11.988Z,24.39
2019-05-22T17:42:40.378Z,24.47
2019-05-22T17:45:06.898Z,24.51
2019-05-22T17:47:33.392Z,24.59
2019-05-22T17:50:01.983Z,24.66
2019-05-22T17:52:28.506Z,24.72
2019-05-22T17:54:55.009Z,24.55
2019-05-22T17:57:23.557Z,24.59
2019-05-22T17:59:50.458Z,24.67
2019-05-22T18:02:17.020Z,24.54
2019-05-22T18:04:45.160Z,24.24
2019-05-22T18:07:11.665Z,24.13
2019-05-22T18:09:38.175Z,24.20
2019-05-22T18:12:06.796Z,24.10
2019-05-22T18:14:33.293Z,23.99
2019-05-22T18:16:59.805Z,23.93
2019-05-22T18:19:28.186Z,23.93
2019-05-22T18:21:54.702Z,23.93
2019-05-22T18:24:21.217Z,23.87
2019-05-22T18:26:50.292Z,23.72
2019-05-22T18:29:16.808Z,23.55
2019-05-22T18:31:43.333Z,23.38
2019-05-22T18:36:44.786Z,23.18
2019-05-22T18:39:11.296Z,23.04
2019-05-22T18:41:50.785Z,22.96
2019-05-22T18:46:52.912Z,22.88
2019-05-22T18:49:19.420Z,22.87
2019-05-22T18:54:35.299Z,23.02
2019-05-22T18:57:04.439Z,22.78
2019-05-22T18:59:32.795Z,22.59
2019-05-22T19:02:00.557Z,22.50
2019-05-22T19:14:43.033Z,22.04
2019-05-22T19:17:27.622Z,21.97
2019-05-22T20:11:09.549Z,21.72
2019-05-22T20:13:40.540Z,21.82
2019-05-22T20:16:07.414Z,21.68
2019-05-22T20:18:35.262Z,21.62
2019-05-22T20:21:05.286Z,21.57
2019-05-22T20:23:35.985Z,21.46
2019-05-22T20:26:03.145Z,21.41
2019-05-22T20:28:29.937Z,21.38
2019-05-22T20:31:03.082Z,21.30
2019-05-22T20:33:33.033Z,21.22
2019-05-22T20:35:59.901Z,21.10
2019-05-22T20:38:30.297Z,20.92
2019-05-22T20:41:01.428Z,20.83
2019-05-22T20:43:35.006Z,20.96
2019-05-22T20:45:59.057Z,20.82
2019-05-22T20:48:28.241Z,20.56
2019-05-22T20:50:54.784Z,20.43
2019-05-22T20:53:21.822Z,20.40
2019-05-22T20:55:50.144Z,20.56
2019-05-22T20:58:19.388Z,20.60
2019-05-22T21:00:46.236Z,20.55
2019-05-22T21:03:15.973Z,20.72
2019-05-22T21:05:42.267Z,20.68
2019-05-22T21:08:09.108Z,20.73
2019-05-22T21:10:36.120Z,20.50
2019-05-22T21:13:03.033Z,20.40
2019-05-22T21:15:31.967Z,20.32
2019-05-22T21:17:58.770Z,20.33
2019-05-22T21:20:25.413Z,20.25
2019-05-22T21:22:52.412Z,20.20
2019-05-22T21:25:22.687Z,20.13
2019-05-22T21:27:50.199Z,20.19
2019-05-22T21:30:17.195Z,20.12
2019-05-22T21:32:43.930Z,20.09
2019-05-22T21:35:10.655Z,19.96
2019-05-22T21:37:37.318Z,19.92
2019-05-22T21:40:04.322Z,19.81
2019-05-22T21:42:31.262Z,19.92
2019-05-22T21:44:58.356Z,19.66
2019-05-22T21:47:26.595Z,19.71
2019-05-22T21:49:53.347Z,19.74
2019-05-22T21:52:20.287Z,19.83
2019-05-22T21:54:49.705Z,19.57
2019-05-22T21:57:16.333Z,19.49
2019-05-22T21:59:42.927Z,19.74
2019-05-22T22:02:10.432Z,19.79
2019-05-22T22:04:37.323Z,19.55
2019-05-22T22:07:04.224Z,19.45
2019-05-22T22:09:30.820Z,19.47
2019-05-22T22:11:57.719Z,19.31
2019-05-22T22:14:24.586Z,19.34
2019-05-22T22:16:51.657Z,19.35
2019-05-22T22:19:18.573Z,19.11
2019-05-22T22:21:45.169Z,19.03
2019-05-22T22:24:11.904Z,18.89
2019-05-22T22:26:38.700Z,18.71
2019-05-22T22:29:05.867Z,18.71
2019-05-22T22:31:32.504Z,18.70
2019-05-22T22:33:59.604Z,18.68
2019-05-22T22:36:26.311Z,18.43
2019-05-22T22:38:52.981Z,18.26
2019-05-22T22:41:19.507Z,18.37
2019-05-22T22:43:46.138Z,18.38
2019-05-22T22:46:12.911Z,18.44
2019-05-22T22:48:39.500Z,18.29
2019-05-22T22:51:06.101Z,18.49
2019-05-22T22:53:32.725Z,18.49
2019-05-22T22:55:59.321Z,18.40
2019-05-22T22:58:26.185Z,18.27
2019-05-22T23:00:52.826Z,18.26
2019-05-22T23:03:19.424Z,18.24
2019-05-22T23:05:46.041Z,18.24
2019-05-22T23:08:12.701Z,18.23
2019-05-22T23:10:39.260Z,18.22
2019-05-22T23:13:05.936Z,18.02
2019-05-22T23:15:32.662Z,17.92
2019-05-22T23:17:59.330Z,17.99
2019-05-22T23:20:25.990Z,17.79
2019-05-22T23:22:52.684Z,17.87
2019-05-22T23:25:19.295Z,17.88
2019-05-22T23:27:47.341Z,17.92
2019-05-22T23:30:14.047Z,17.97
2019-05-22T23:32:40.654Z,18.16
2019-05-22T23:35:07.268Z,18.19
2019-05-22T23:37:34.031Z,18.21
2019-05-22T23:40:00.678Z,18.22
2019-05-22T23:42:27.308Z,18.18
2019-05-22T23:44:53.933Z,18.32
2019-05-22T23:47:22.848Z,18.19
2019-05-22T23:49:49.444Z,18.14
2019-05-22T23:52:16.057Z,18.16
2019-05-22T23:54:42.697Z,18.16
2019-05-22T23:57:09.408Z,18.25
2019-05-22T23:59:36.017Z,18.20
